Time;durP1;ratioP1;P1;durP2;ratioP2;P2;SDS_P1;SDS_P2;PMS_P1;PMS_P2;Temp;Humidity;BMP_temperature;BMP_pressure;BME280_temperature;BME280_humidity;BME280_pressure;Samples;Min_cycle;Max_cycle;Signal;HPM_P1;HPM_P2
2023/10/18 00:02:06;;;;;;;5.53;4.40;;;3.70;99.90;;;;;;5073722;28;20203;-88
2023/10/18 00:04:31;;;;;;;7.07;4.00;;;3.70;99.90;;;;;;5073777;28;20595;-89
2023/10/18 00:06:58;;;;;;;7.07;4.30;;;3.70;99.90;;;;;;5073213;28;20268;-89
2023/10/18 00:12:08;;;;;;;6.37;4.00;;;3.70;99.90;;;;;;5055145;28;20233;-89
2023/10/18 00:14:35;;;;;;;5.73;4.23;;;3.70;99.90;;;;;;5053565;28;20178;-89
2023/10/18 00:17:01;;;;;;;11.47;5.00;;;3.80;99.90;;;;;;5053933;28;20201;-89
2023/10/18 00:19:26;;;;;;;5.53;4.30;;;3.90;99.90;;;;;;5053563;28;20494;-89
2023/10/18 00:21:55;;;;;;;7.53;4.00;;;3.80;99.90;;;;;;5053611;28;20271;-89
2023/10/18 00:24:21;;;;;;;7.73;4.90;;;3.80;99.90;;;;;;5053533;28;20250;-90
2023/10/18 00:26:46;;;;;;;8.07;4.67;;;3.80;99.90;;;;;;5053456;28;20185;-90
2023/10/18 00:29:12;;;;;;;7.80;4.63;;;3.90;99.90;;;;;;5054811;28;20790;-89
2023/10/18 00:31:41;;;;;;;6.87;4.60;;;3.90;99.90;;;;;;5053468;28;20555;-89
2023/10/18 00:34:06;;;;;;;5.77;4.50;;;3.80;99.90;;;;;;5053416;28;20185;-89
2023/10/18 00:36:33;;;;;;;7.03;4.47;;;3.80;99.90;;;;;;5053553;28;20185;-90
2023/10/18 00:38:59;;;;;;;5.73;4.20;;;3.80;99.90;;;;;;5063393;28;20192;-89
2023/10/18 00:41:43;;;;;;;8.83;4.87;;;3.80;99.90;;;;;;5073526;28;20185;-90
2023/10/18 00:44:12;;;;;;;7.80;4.87;;;3.80;99.90;;;;;;5073708;28;20231;-89
2023/10/18 00:46:39;;;;;;;5.97;4.30;;;3.90;99.90;;;;;;5073731;28;20188;-90
2023/10/18 00:49:15;;;;;;;8.00;5.80;;;4.00;99.90;;;;;;5073458;28;20276;-90
2023/10/18 00:51:43;;;;;;;8.57;5.17;;;4.00;99.90;;;;;;5073554;28;20180;-90
2023/10/18 00:54:13;;;;;;;6.53;4.97;;;4.10;99.90;;;;;;5074155;28;20185;-90
2023/10/18 00:56:50;;;;;;;7.87;5.33;;;4.00;99.90;;;;;;5074486;28;20173;-90
2023/10/18 00:59:22;;;;;;;6.30;4.40;;;4.00;99.90;;;;;;5073326;28;20188;-90
2023/10/18 01:01:57;;;;;;;5.70;4.50;;;4.00;99.90;;;;;;5073621;28;20215;-90
2023/10/18 01:04:24;;;;;;;6.30;4.63;;;3.90;99.90;;;;;;5073273;28;20722;-90
2023/10/18 01:06:50;;;;;;;5.73;4.50;;;3.90;99.90;;;;;;5073523;28;20178;-89
2023/10/18 01:09:18;;;;;;;6.60;4.60;;;3.80;99.90;;;;;;5060505;28;20242;-90
2023/10/18 01:11:47;;;;;;;6.47;4.73;;;3.70;99.90;;;;;;5054547;28;20184;-88
2023/10/18 01:14:20;;;;;;;7.07;4.57;;;3.60;99.90;;;;;;5053368;28;20174;-90
2023/10/18 01:16:46;;;;;;;7.80;4.27;;;3.50;99.90;;;;;;5052001;28;20193;-89
2023/10/18 01:19:15;;;;;;;5.43;4.10;;;3.50;99.90;;;;;;5055082;28;20181;-90
2023/10/18 01:21:46;;;;;;;7.97;4.00;;;3.40;99.90;;;;;;5056751;28;20185;-90
2023/10/18 01:24:16;;;;;;;6.37;4.13;;;3.40;99.90;;;;;;5056543;28;20652;-91
2023/10/18 01:26:42;;;;;;;6.30;4.20;;;3.40;99.90;;;;;;5056745;28;20189;-91
2023/10/18 01:29:10;;;;;;;6.07;3.93;;;3.40;99.90;;;;;;5056697;28;20185;-89
2023/10/18 01:31:44;;;;;;;4.73;3.93;;;3.30;99.90;;;;;;5056731;28;20178;-90
2023/10/18 01:34:11;;;;;;;5.40;4.33;;;3.40;99.90;;;;;;5056598;28;20189;-90
2023/10/18 01:36:39;;;;;;;6.93;4.40;;;3.40;99.90;;;;;;5056703;28;20186;-91
2023/10/18 01:39:18;;;;;;;5.77;4.47;;;3.40;99.90;;;;;;5056577;28;20178;-90
2023/10/18 01:41:49;;;;;;;7.93;4.13;;;3.30;99.90;;;;;;5056700;28;20281;-91
2023/10/18 01:44:27;;;;;;;5.67;4.00;;;3.30;99.90;;;;;;5056616;28;20213;-91
2023/10/18 01:47:00;;;;;;;6.07;4.40;;;3.30;99.90;;;;;;5056410;28;20176;-91
2023/10/18 01:49:26;;;;;;;5.37;4.27;;;3.30;99.90;;;;;;5056548;28;20197;-90
2023/10/18 01:51:57;;;;;;;5.20;4.40;;;3.30;99.90;;;;;;5056399;28;20178;-91
2023/10/18 01:54:26;;;;;;;7.50;4.70;;;3.30;99.90;;;;;;5056162;28;20672;-91
2023/10/18 01:56:57;;;;;;;4.97;4.20;;;3.20;99.90;;;;;;5056376;28;20213;-90
2023/10/18 01:59:30;;;;;;;6.43;4.30;;;3.20;99.90;;;;;;5056299;28;20265;-92
2023/10/18 02:01:57;;;;;;;6.67;4.73;;;3.20;99.90;;;;;;5056236;28;20182;-91
2023/10/18 02:04:27;;;;;;;5.37;4.43;;;3.20;99.90;;;;;;5056087;28;20268;-91
2023/10/18 02:06:59;;;;;;;6.60;4.53;;;3.20;99.90;;;;;;5056198;28;20631;-91
2023/10/18 02:09:36;;;;;;;6.90;4.40;;;3.20;99.90;;;;;;5055818;28;20324;-91
2023/10/18 02:12:08;;;;;;;5.77;4.73;;;3.20;99.90;;;;;;5055956;28;20182;-91
2023/10/18 02:14:34;;;;;;;6.97;5.17;;;3.20;99.90;;;;;;5056059;28;20232;-91
2023/10/18 02:17:00;;;;;;;6.30;5.03;;;3.10;99.90;;;;;;5055802;28;20186;-91
2023/10/18 02:19:27;;;;;;;7.30;4.80;;;3.10;99.90;;;;;;5055610;28;20182;-92
2023/10/18 02:21:58;;;;;;;5.63;4.57;;;3.10;99.90;;;;;;5055714;28;20212;-90
2023/10/18 02:24:24;;;;;;;7.33;4.73;;;3.10;99.90;;;;;;5055517;28;20301;-90
2023/10/18 02:26:56;;;;;;;6.00;5.00;;;3.00;99.90;;;;;;5055557;28;20185;-91
2023/10/18 02:29:23;;;;;;;6.27;4.90;;;2.90;99.90;;;;;;5055254;28;20264;-92
2023/10/18 02:31:56;;;;;;;5.83;4.57;;;2.90;99.90;;;;;;5055632;28;20609;-90
2023/10/18 02:34:25;;;;;;;6.60;4.37;;;2.90;99.90;;;;;;5055321;28;20170;-91
2023/10/18 02:36:52;;;;;;;9.10;5.17;;;2.90;99.90;;;;;;5055514;28;20197;-91
2023/10/18 02:39:23;;;;;;;6.27;4.30;;;2.90;99.90;;;;;;5055267;28;20177;-91
2023/10/18 02:42:04;;;;;;;5.77;4.50;;;3.00;99.90;;;;;;5055486;28;20182;-91
2023/10/18 02:44:33;;;;;;;5.90;4.47;;;3.00;99.90;;;;;;5055446;28;20235;-91
2023/10/18 02:49:45;;;;;;;7.13;4.70;;;2.90;99.90;;;;;;5057015;28;20223;-90
2023/10/18 02:52:15;;;;;;;6.83;4.80;;;2.90;99.90;;;;;;5055259;28;20314;-91
2023/10/18 02:54:42;;;;;;;6.80;4.63;;;2.90;99.90;;;;;;5055069;28;20174;-92
2023/10/18 02:57:09;;;;;;;6.93;5.03;;;2.90;99.90;;;;;;5055198;28;20502;-91
2023/10/18 02:59:35;;;;;;;6.47;4.67;;;2.90;99.90;;;;;;5055562;28;20170;-91
2023/10/18 03:02:09;;;;;;;6.80;4.93;;;2.90;99.90;;;;;;5055153;28;20186;-91
2023/10/18 03:04:38;;;;;;;7.13;5.30;;;2.80;99.90;;;;;;5054511;28;20250;-92
2023/10/18 03:07:08;;;;;;;8.07;4.80;;;2.80;99.90;;;;;;5054108;28;20252;-91
2023/10/18 03:12:14;;;;;;;6.20;4.67;;;2.80;99.90;;;;;;5076199;28;20184;-92
2023/10/18 03:14:41;;;;;;;6.00;4.63;;;2.80;99.90;;;;;;5074917;28;20177;-92
2023/10/18 03:17:21;;;;;;;6.77;4.83;;;2.80;99.90;;;;;;5074746;28;20181;-92
2023/10/18 03:19:50;;;;;;;7.43;4.60;;;2.80;99.90;;;;;;5074766;28;20173;-93
2023/10/18 03:22:20;;;;;;;7.40;4.90;;;2.90;99.90;;;;;;5074675;28;20649;-92
2023/10/18 03:24:53;;;;;;;6.67;5.30;;;2.90;99.90;;;;;;5074465;28;20577;-92
2023/10/18 03:27:18;;;;;;;6.27;4.33;;;2.80;99.90;;;;;;5074505;28;20193;-92
2023/10/18 03:29:45;;;;;;;10.00;5.07;;;2.90;99.90;;;;;;5074556;28;20176;-92
2023/10/18 03:32:25;;;;;;;7.00;5.37;;;2.80;99.90;;;;;;5074470;28;20205;-91
2023/10/18 03:34:54;;;;;;;8.10;5.77;;;2.90;99.90;;;;;;5074471;28;20177;-90
2023/10/18 03:37:26;;;;;;;7.67;5.73;;;3.00;99.90;;;;;;5074598;28;20557;-92
2023/10/18 03:39:53;;;;;;;7.93;6.13;;;3.00;99.90;;;;;;5074250;28;20283;-92
2023/10/18 03:42:33;;;;;;;7.50;5.87;;;3.10;99.90;;;;;;5073650;28;20180;-91
2023/10/18 03:45:00;;;;;;;7.57;5.43;;;3.00;99.90;;;;;;5074361;28;20192;-91
2023/10/18 03:47:29;;;;;;;7.30;5.70;;;3.00;99.90;;;;;;5074259;28;20297;-90
2023/10/18 03:49:55;;;;;;;6.67;5.40;;;3.00;99.90;;;;;;5075034;28;20192;-93
2023/10/18 03:52:27;;;;;;;8.13;5.47;;;3.00;99.90;;;;;;5074360;28;20182;-92
2023/10/18 03:57:41;;;;;;;7.07;5.77;;;3.00;99.90;;;;;;5075604;28;20177;-92
2023/10/18 04:02:56;;;;;;;6.97;5.60;;;3.00;99.90;;;;;;5075532;28;20211;-92
2023/10/18 04:05:41;;;;;;;6.23;4.57;;;3.00;99.90;;;;;;5074160;28;20173;-92
2023/10/18 04:08:08;;;;;;;9.33;5.30;;;3.00;99.90;;;;;;5073732;28;20267;-91
2023/10/18 04:10:37;;;;;;;8.23;5.47;;;2.90;99.90;;;;;;5073946;28;20189;-91
2023/10/18 04:13:11;;;;;;;7.07;5.33;;;3.00;99.90;;;;;;5073907;28;20181;-92
2023/10/18 04:15:49;;;;;;;7.10;5.30;;;3.00;99.90;;;;;;5074103;28;20173;-92
2023/10/18 04:18:25;;;;;;;6.83;5.20;;;3.00;99.90;;;;;;5074174;28;20221;-92
2023/10/18 04:20:52;;;;;;;8.43;5.87;;;2.90;99.90;;;;;;5073853;28;20181;-93
2023/10/18 04:23:20;;;;;;;10.50;5.27;;;2.90;99.90;;;;;;5074066;28;20201;-93
2023/10/18 04:25:57;;;;;;;6.13;5.07;;;2.90;99.90;;;;;;5073887;28;20181;-92
2023/10/18 04:28:31;;;;;;;7.20;5.07;;;2.80;99.90;;;;;;5074249;28;20550;-94
2023/10/18 04:31:00;;;;;;;8.17;5.10;;;2.80;99.90;;;;;;5073878;28;20188;-93
2023/10/18 04:33:41;;;;;;;6.00;5.07;;;2.70;99.90;;;;;;5073922;28;20181;-93
2023/10/18 04:36:11;;;;;;;6.30;4.97;;;2.70;99.90;;;;;;5074018;28;20177;-93
2023/10/18 04:38:43;;;;;;;6.03;4.73;;;2.70;99.90;;;;;;5073770;28;20192;-92
2023/10/18 04:41:10;;;;;;;7.73;4.63;;;2.70;99.90;;;;;;5073662;28;20292;-94
2023/10/18 04:43:37;;;;;;;6.70;4.90;;;2.70;99.90;;;;;;5073764;28;20698;-91
2023/10/18 04:46:14;;;;;;;5.60;3.97;;;2.70;99.90;;;;;;5056931;28;20185;-93
2023/10/18 04:51:44;;;;;;;5.30;4.40;;;2.70;99.90;;;;;;5054883;28;20162;-92
2023/10/18 04:54:15;;;;;;;7.43;4.90;;;2.70;99.90;;;;;;5057144;28;20272;-92
2023/10/18 04:56:45;;;;;;;5.83;4.60;;;2.70;99.90;;;;;;5057469;28;20185;-92
2023/10/18 05:04:29;;;;;;;7.57;5.00;;;2.80;99.90;;;;;;5058602;28;20291;-90
2023/10/18 05:06:57;;;;;;;6.90;4.73;;;2.70;99.90;;;;;;5057275;28;20180;-94
2023/10/18 05:09:41;;;;;;;6.53;4.50;;;2.70;99.90;;;;;;5070125;28;20561;-92
2023/10/18 05:17:47;;;;;;;6.47;5.23;;;2.60;99.90;;;;;;5078377;28;20176;-95
2023/10/18 05:22:48;;;;;;;6.97;4.53;;;2.60;99.90;;;;;;5077958;28;20153;-95
2023/10/18 05:27:45;;;;;;;8.47;4.70;;;2.40;99.90;;;;;;5078330;28;20166;-94
2023/10/18 05:30:15;;;;;;;5.00;4.00;;;2.40;99.90;;;;;;5077359;28;20183;-95
2023/10/18 05:32:49;;;;;;;5.87;4.60;;;2.30;99.90;;;;;;5076693;28;20271;-96
2023/10/18 05:35:21;;;;;;;7.00;4.83;;;2.20;99.90;;;;;;5076573;28;20166;-94
2023/10/18 05:38:48;;;;;;;6.10;4.20;;;2.20;99.90;;;;;;5076547;28;20278;-94
2023/10/18 05:43:35;;;;;;;6.10;4.70;;;2.20;99.90;;;;;;5057811;28;20205;-94
2023/10/18 05:46:07;;;;;;;9.60;5.17;;;2.10;99.90;;;;;;5056502;28;20201;-94
2023/10/18 05:48:40;;;;;;;9.50;5.40;;;2.20;99.90;;;;;;5056079;28;20174;-94
2023/10/18 05:54:07;;;;;;;6.70;5.33;;;2.20;99.90;;;;;;5057811;28;20176;-96
2023/10/18 05:56:33;;;;;;;7.40;5.87;;;2.20;99.90;;;;;;5056961;28;20216;-95
2023/10/18 06:01:45;;;;;;;6.63;5.20;;;2.30;99.90;;;;;;5057715;28;20223;-95
2023/10/18 06:04:24;;;;;;;8.50;4.70;;;2.30;99.90;;;;;;5055334;28;20798;-95
2023/10/18 06:06:51;;;;;;;5.90;5.00;;;2.30;99.90;;;;;;5056469;28;20580;-95
2023/10/18 06:09:32;;;;;;;7.10;5.17;;;2.30;99.90;;;;;;5056406;28;20672;-96
2023/10/18 06:12:03;;;;;;;13.70;7.10;;;2.30;99.90;;;;;;5055961;28;20609;-95
2023/10/18 06:14:52;;;;;;;10.70;8.97;;;2.30;99.90;;;;;;5056785;28;20174;-95
2023/10/18 06:17:40;;;;;;;9.00;7.43;;;2.20;99.90;;;;;;5056413;28;20625;-94
2023/10/18 06:25:49;;;;;;;7.83;5.37;;;2.40;99.90;;;;;;5057173;28;20169;-93
2023/10/18 06:28:20;;;;;;;6.80;5.50;;;2.40;99.90;;;;;;5055752;28;20253;-93
2023/10/18 06:30:51;;;;;;;12.53;5.40;;;2.40;99.90;;;;;;5055966;28;20167;-96
2023/10/18 06:33:21;;;;;;;6.27;5.23;;;2.40;99.90;;;;;;5055639;28;20170;-95
2023/10/18 06:35:53;;;;;;;7.00;5.27;;;2.50;99.90;;;;;;5057280;28;20166;-94
2023/10/18 06:38:22;;;;;;;12.57;5.93;;;2.60;99.90;;;;;;5060088;28;20192;-94
2023/10/18 06:43:20;;;;;;;14.53;6.07;;;2.60;99.90;;;;;;5076510;28;20579;-93
2023/10/18 06:45:50;;;;;;;18.90;6.00;;;2.70;99.90;;;;;;5075392;28;20185;-92
2023/10/18 06:48:17;;;;;;;15.40;6.93;;;2.70;99.90;;;;;;5075288;28;20176;-93
2023/10/18 06:50:46;;;;;;;8.97;6.07;;;2.70;99.90;;;;;;5075723;28;20177;-95
2023/10/18 06:53:25;;;;;;;9.10;6.33;;;2.70;99.90;;;;;;5075440;28;20184;-92
2023/10/18 06:56:07;;;;;;;13.13;6.40;;;2.80;99.90;;;;;;5075126;28;20226;-93
2023/10/18 07:01:09;;;;;;;16.97;7.13;;;2.70;99.90;;;;;;5076206;28;20212;-91
2023/10/18 07:03:37;;;;;;;28.90;8.27;;;2.80;99.90;;;;;;5074317;28;20215;-91
2023/10/18 07:06:16;;;;;;;19.80;6.80;;;2.90;99.90;;;;;;5074407;28;20177;-90
2023/10/18 07:08:44;;;;;;;13.53;7.17;;;2.90;99.90;;;;;;5074455;28;20267;-90
2023/10/18 07:11:16;;;;;;;15.20;7.20;;;2.90;99.90;;;;;;5074512;28;20226;-91
2023/10/18 07:13:50;;;;;;;26.03;7.60;;;3.00;99.90;;;;;;5074550;28;20564;-93
2023/10/18 07:21:44;;;;;;;20.30;8.63;;;3.20;99.90;;;;;;5075715;28;20210;-91
2023/10/18 07:24:10;;;;;;;12.93;9.03;;;3.20;99.90;;;;;;5073691;28;20300;-91
2023/10/18 07:26:40;;;;;;;13.37;8.90;;;3.20;99.90;;;;;;5073941;28;20625;-91
2023/10/18 07:29:09;;;;;;;17.67;9.30;;;3.30;99.90;;;;;;5074195;28;20185;-90
2023/10/18 07:31:38;;;;;;;14.43;9.77;;;3.30;99.90;;;;;;5074550;28;20181;-92
2023/10/18 07:34:31;;;;;;;13.47;9.50;;;3.40;99.90;;;;;;5074578;28;20181;-90
2023/10/18 07:36:57;;;;;;;17.60;11.03;;;3.50;99.90;;;;;;5074443;28;20230;-90
2023/10/18 07:39:26;;;;;;;16.20;10.50;;;3.50;99.90;;;;;;5074020;28;20272;-89
2023/10/18 07:41:53;;;;;;;15.30;10.67;;;3.60;99.90;;;;;;5074368;28;20529;-89
2023/10/18 07:44:28;;;;;;;17.70;10.73;;;3.70;99.90;;;;;;5074333;28;20232;-92
2023/10/18 07:46:54;;;;;;;19.67;10.83;;;3.80;99.90;;;;;;5074377;28;20170;-91
2023/10/18 07:49:20;;;;;;;14.87;10.50;;;3.80;99.90;;;;;;5074519;28;20181;-92
2023/10/18 07:51:49;;;;;;;21.50;11.60;;;3.80;99.90;;;;;;5074641;28;20510;-91
2023/10/18 07:54:21;;;;;;;15.83;10.47;;;3.80;99.90;;;;;;5074045;28;20169;-92
2023/10/18 07:56:50;;;;;;;18.47;10.93;;;3.90;99.90;;;;;;5074167;28;20196;-92
2023/10/18 07:59:30;;;;;;;17.90;11.47;;;4.00;99.90;;;;;;5074022;28;20211;-89
2023/10/18 08:02:09;;;;;;;16.03;11.17;;;4.10;99.90;;;;;;5074059;28;20199;-90
2023/10/18 08:04:41;;;;;;;15.80;10.60;;;4.10;99.90;;;;;;5074153;28;20307;-92
2023/10/18 08:07:10;;;;;;;21.07;11.10;;;4.20;99.90;;;;;;5074121;28;20162;-92
2023/10/18 08:09:39;;;;;;;18.27;11.37;;;4.30;99.90;;;;;;5073658;28;20241;-91
2023/10/18 08:12:06;;;;;;;16.07;11.17;;;4.40;99.90;;;;;;5074022;28;20238;-92
2023/10/18 08:14:34;;;;;;;18.40;11.63;;;4.40;99.90;;;;;;5073870;28;20198;-90
2023/10/18 08:17:29;;;;;;;14.87;10.97;;;4.40;99.90;;;;;;5074005;28;20169;-93
2023/10/18 08:20:28;;;;;;;15.17;9.90;;;4.40;99.90;;;;;;5074150;28;20218;-91
2023/10/18 08:22:44;;;;;;;14.87;9.43;;;4.40;99.90;;;;;;5074795;28;20185;-94
2023/10/18 08:25:21;;;;;;;21.33;9.77;;;4.40;99.90;;;;;;5073703;28;20382;-95
2023/10/18 08:27:54;;;;;;;13.43;9.67;;;4.40;99.90;;;;;;5075983;28;20179;-95
2023/10/18 08:31:05;;;;;;;13.37;9.97;;;4.30;99.90;;;;;;5079161;28;20161;-96
2023/10/18 08:33:06;;;;;;;14.03;9.67;;;4.40;99.90;;;;;;5071853;28;20242;-94
2023/10/18 08:35:33;;;;;;;14.17;10.10;;;4.40;99.90;;;;;;5077984;28;20260;-96
2023/10/18 08:38:01;;;;;;;16.73;10.13;;;4.50;99.90;;;;;;5077867;28;20200;-93
2023/10/18 08:43:18;;;;;;;14.70;10.53;;;4.60;99.90;;;;;;5079452;28;20201;-94
2023/10/18 08:45:48;;;;;;;14.50;10.70;;;4.60;99.90;;;;;;5077838;28;20235;-93
2023/10/18 08:48:20;;;;;;;17.97;9.83;;;4.80;99.90;;;;;;5077619;28;20181;-91
2023/10/18 08:50:48;;;;;;;15.37;10.67;;;4.90;99.90;;;;;;5077687;28;20589;-94
2023/10/18 08:53:22;;;;;;;17.60;10.87;;;5.00;99.90;;;;;;5077628;28;20200;-92
2023/10/18 08:55:52;;;;;;;15.90;10.67;;;5.10;99.90;;;;;;5077322;28;20195;-91
2023/10/18 08:58:20;;;;;;;16.10;10.67;;;5.20;99.90;;;;;;5077467;28;20173;-90
2023/10/18 09:03:27;;;;;;;18.63;10.63;;;5.40;99.90;;;;;;5078498;28;20207;-91
2023/10/18 09:06:04;;;;;;;14.40;10.47;;;5.50;99.90;;;;;;5077065;28;20260;-91
2023/10/18 09:08:42;;;;;;;15.23;11.17;;;5.60;99.90;;;;;;5077012;28;20271;-91
2023/10/18 09:11:27;;;;;;;13.73;10.20;;;5.80;99.90;;;;;;5077047;28;20177;-89
2023/10/18 09:14:07;;;;;;;14.17;10.30;;;5.90;99.90;;;;;;5076945;28;20173;-91
2023/10/18 09:16:46;;;;;;;14.30;10.80;;;6.10;99.90;;;;;;5076978;28;20177;-89
2023/10/18 09:19:12;;;;;;;12.80;9.63;;;6.20;99.90;;;;;;5076787;28;20176;-90
2023/10/18 09:24:22;;;;;;;12.80;9.57;;;6.40;99.90;;;;;;5077786;28;20207;-91
2023/10/18 09:26:51;;;;;;;16.20;10.33;;;6.50;99.90;;;;;;5076184;28;20677;-90
2023/10/18 09:29:18;;;;;;;13.33;9.60;;;6.60;99.90;;;;;;5076450;28;20184;-90
2023/10/18 09:31:54;;;;;;;13.60;9.50;;;6.70;99.90;;;;;;5076774;28;20177;-90
2023/10/18 09:34:23;;;;;;;17.57;10.30;;;6.80;99.90;;;;;;5076642;28;20173;-90
2023/10/18 09:36:56;;;;;;;12.33;9.83;;;6.90;99.90;;;;;;5077494;28;20149;-89
2023/10/18 09:39:35;;;;;;;13.80;9.77;;;7.10;99.90;;;;;;5061702;28;20221;-89
2023/10/18 09:42:17;;;;;;;12.43;9.63;;;7.10;99.90;;;;;;5055868;28;20201;-92
2023/10/18 09:44:46;;;;;;;14.87;9.73;;;7.30;99.90;;;;;;5056099;28;20659;-89
2023/10/18 09:47:13;;;;;;;10.93;8.97;;;7.40;99.90;;;;;;5057272;28;20172;-87
2023/10/18 09:49:41;;;;;;;17.17;9.03;;;7.40;99.90;;;;;;5056048;28;20178;-88
2023/10/18 09:52:11;;;;;;;14.60;9.27;;;7.50;99.90;;;;;;5056138;28;20176;-87
2023/10/18 09:54:49;;;;;;;11.83;8.93;;;7.60;99.90;;;;;;5055985;28;20166;-88
2023/10/18 09:57:23;;;;;;;11.33;8.03;;;7.70;99.90;;;;;;5056038;28;20251;-88
2023/10/18 09:59:55;;;;;;;10.60;8.23;;;7.90;99.90;;;;;;5055580;28;20177;-87
2023/10/18 10:02:21;;;;;;;11.97;8.47;;;8.00;99.90;;;;;;5055498;28;20239;-87
2023/10/18 10:04:54;;;;;;;9.13;7.63;;;8.10;99.90;;;;;;5055429;28;20707;-87
2023/10/18 10:07:27;;;;;;;11.70;8.27;;;8.20;99.90;;;;;;5056456;28;20200;-85
2023/10/18 10:10:07;;;;;;;19.97;8.23;;;8.30;99.90;;;;;;5072281;28;20248;-88
2023/10/18 10:12:34;;;;;;;10.10;7.50;;;8.40;99.90;;;;;;5075060;28;20518;-88
2023/10/18 10:15:03;;;;;;;12.37;7.77;;;8.50;99.90;;;;;;5076866;28;20188;-89
2023/10/18 10:17:30;;;;;;;12.17;7.13;;;8.60;99.90;;;;;;5076771;28;20158;-86
2023/10/18 10:20:10;;;;;;;10.90;7.67;;;8.70;99.90;;;;;;5076324;28;20208;-86
2023/10/18 10:22:41;;;;;;;17.07;7.80;;;8.80;99.90;;;;;;5075804;28;20599;-88
2023/10/18 10:25:19;;;;;;;11.60;7.57;;;8.80;99.90;;;;;;5075013;28;20193;-87
2023/10/18 10:27:59;;;;;;;12.93;8.80;;;8.90;99.90;;;;;;5075412;28;20569;-90
2023/10/18 10:30:35;;;;;;;11.47;8.23;;;8.90;99.90;;;;;;5075607;28;20176;-88
2023/10/18 10:33:05;;;;;;;10.97;8.43;;;9.10;99.90;;;;;;5075108;28;20173;-88
2023/10/18 10:35:35;;;;;;;11.73;8.80;;;9.10;99.90;;;;;;5074904;28;20177;-87
2023/10/18 10:38:05;;;;;;;11.30;8.27;;;9.20;99.90;;;;;;5072786;28;20260;-88
2023/10/18 10:43:09;;;;;;;11.27;8.20;;;9.20;99.90;;;;;;5056085;28;20208;-90
2023/10/18 10:48:17;;;;;;;10.15;6.88;;;9.50;99.90;;;;;;5056543;28;20166;-88
2023/10/18 10:50:53;;;;;;;10.00;7.20;;;9.60;99.90;;;;;;5054530;28;20569;-87
2023/10/18 10:53:58;;;;;;;15.02;7.57;;;9.70;99.90;;;;;;5054609;28;20181;-86
2023/10/18 10:56:33;;;;;;;13.65;7.05;;;9.70;99.90;;;;;;5055626;28;20158;-87
2023/10/18 10:59:04;;;;;;;10.10;7.03;;;9.80;99.90;;;;;;5054643;28;20177;-88
2023/10/18 11:04:28;;;;;;;13.15;6.78;;;9.90;99.90;;;;;;5055845;28;20213;-88
2023/10/18 11:07:01;;;;;;;8.98;6.75;;;10.10;99.90;;;;;;5054785;28;20173;-89
2023/10/18 11:09:32;;;;;;;10.60;6.47;;;10.10;99.90;;;;;;5054597;28;20230;-89
2023/10/18 11:12:04;;;;;;;10.00;6.55;;;10.10;99.90;;;;;;5054549;28;20178;-87
2023/10/18 11:14:31;;;;;;;7.95;6.30;;;10.20;99.90;;;;;;5054783;28;20500;-91
2023/10/18 11:17:17;;;;;;;7.43;6.15;;;10.20;99.90;;;;;;5054090;28;20188;-92
2023/10/18 11:19:44;;;;;;;9.32;6.30;;;10.30;99.90;;;;;;5053969;28;20173;-87
2023/10/18 11:22:11;;;;;;;7.13;6.03;;;10.30;99.90;;;;;;5054810;28;20174;-88
2023/10/18 11:24:39;;;;;;;8.98;5.85;;;10.30;99.90;;;;;;5053749;28;20973;-87
2023/10/18 11:27:09;;;;;;;10.48;6.55;;;10.30;99.90;;;;;;5053599;28;20174;-87
2023/10/18 11:29:41;;;;;;;8.30;6.10;;;10.40;99.90;;;;;;5053540;28;20178;-86
2023/10/18 11:32:15;;;;;;;7.75;5.97;;;10.50;99.90;;;;;;5055429;28;20170;-87
2023/10/18 11:34:43;;;;;;;9.50;6.25;;;10.40;99.90;;;;;;5055253;28;20154;-89
2023/10/18 11:37:09;;;;;;;8.45;6.13;;;10.40;99.90;;;;;;5053479;28;20181;-88
2023/10/18 11:39:37;;;;;;;8.77;6.20;;;10.60;99.90;;;;;;5054164;28;20636;-88
2023/10/18 11:42:03;;;;;;;8.65;5.78;;;10.60;99.90;;;;;;5053578;28;20208;-87
2023/10/18 11:44:34;;;;;;;9.48;6.22;;;10.60;99.90;;;;;;5053414;28;20206;-84
2023/10/18 11:50:01;;;;;;;10.43;6.72;;;10.70;99.90;;;;;;5041642;28;20185;-89
2023/10/18 11:52:27;;;;;;;7.55;5.68;;;10.70;99.90;;;;;;5053700;28;20228;-86
2023/10/18 11:55:08;;;;;;;9.85;5.93;;;10.80;99.90;;;;;;5053473;28;20182;-86
2023/10/18 11:57:39;;;;;;;7.20;5.63;;;10.90;99.90;;;;;;5053302;28;20547;-88
2023/10/18 12:00:26;;;;;;;6.65;5.57;;;11.00;99.90;;;;;;5053519;28;20299;-85
2023/10/18 12:02:53;;;;;;;9.38;6.03;;;11.10;99.90;;;;;;5053999;28;20523;-91
2023/10/18 12:05:24;;;;;;;10.25;5.50;;;11.20;99.90;;;;;;5054242;28;20276;-88
2023/10/18 12:07:50;;;;;;;7.88;5.60;;;11.20;99.90;;;;;;5053623;28;20177;-92
2023/10/18 12:10:26;;;;;;;7.75;5.43;;;11.20;99.90;;;;;;5074125;28;20192;-91
2023/10/18 12:12:52;;;;;;;7.00;5.35;;;11.20;99.90;;;;;;5061377;28;20177;-88
2023/10/18 12:15:30;;;;;;;10.15;5.50;;;11.30;99.90;;;;;;5054007;28;20253;-90
2023/10/18 12:17:56;;;;;;;11.75;5.13;;;11.20;99.90;;;;;;5053275;28;20331;-89
2023/10/18 12:20:34;;;;;;;7.03;5.15;;;11.20;99.90;;;;;;5053416;28;20567;-87
2023/10/18 12:23:09;;;;;;;7.88;4.90;;;11.20;99.90;;;;;;5053584;28;20177;-88
2023/10/18 12:25:38;;;;;;;8.90;5.82;;;11.20;99.90;;;;;;5054135;28;20509;-88
2023/10/18 12:28:12;;;;;;;9.63;5.10;;;11.20;99.90;;;;;;5055654;28;20228;-87
2023/10/18 12:30:54;;;;;;;8.55;5.05;;;11.10;99.90;;;;;;5055134;28;20552;-86
2023/10/18 12:33:27;;;;;;;8.85;4.95;;;11.10;99.90;;;;;;5064187;28;20264;-88
2023/10/18 12:36:07;;;;;;;9.18;5.53;;;11.10;99.90;;;;;;5073460;28;20176;-92
2023/10/18 12:38:38;;;;;;;7.30;5.22;;;11.20;99.90;;;;;;5074894;28;20181;-89
2023/10/18 12:41:07;;;;;;;7.32;5.47;;;11.20;99.90;;;;;;5075492;28;20181;-90
2023/10/18 12:43:38;;;;;;;10.00;5.20;;;11.20;99.90;;;;;;5072960;28;20215;-87
2023/10/18 12:46:21;;;;;;;6.05;4.70;;;11.20;99.90;;;;;;5062181;28;20192;-89
2023/10/18 12:48:50;;;;;;;6.70;5.20;;;11.30;99.90;;;;;;5053730;28;20224;-86
2023/10/18 12:51:18;;;;;;;6.68;4.72;;;11.30;99.90;;;;;;5057583;28;20522;-89
2023/10/18 12:53:48;;;;;;;6.20;4.80;;;11.30;99.90;;;;;;5054239;28;20212;-90
2023/10/18 12:58:58;;;;;;;11.65;5.45;;;11.20;99.90;;;;;;5075981;28;20229;-89
2023/10/18 13:01:58;;;;;;;6.32;4.65;;;11.20;99.90;;;;;;5074845;28;20234;-88
2023/10/18 13:04:17;;;;;;;6.65;5.18;;;11.30;99.90;;;;;;5073550;28;20216;-89
2023/10/18 13:06:49;;;;;;;11.25;5.15;;;11.20;99.90;;;;;;5076591;28;20173;-90
2023/10/18 13:09:19;;;;;;;8.20;5.40;;;11.30;99.90;;;;;;5075558;28;20236;-89
2023/10/18 13:14:23;;;;;;;7.03;5.38;;;11.20;99.90;;;;;;5077776;28;20189;-85
2023/10/18 13:16:56;;;;;;;8.70;5.82;;;11.30;99.90;;;;;;5076737;28;20222;-86
2023/10/18 13:19:23;;;;;;;10.00;5.38;;;11.40;99.90;;;;;;5076961;28;20215;-88
2023/10/18 13:21:50;;;;;;;11.13;6.22;;;11.40;99.90;;;;;;5076475;28;20184;-87
2023/10/18 13:24:33;;;;;;;12.57;6.32;;;11.40;99.90;;;;;;5075184;28;20552;-84
2023/10/18 13:27:00;;;;;;;8.30;6.10;;;11.30;99.90;;;;;;5056667;28;20230;-88
2023/10/18 13:31:59;;;;;;;9.05;6.00;;;11.20;99.90;;;;;;5077752;28;20201;-85
2023/10/18 13:34:32;;;;;;;6.72;5.50;;;11.10;99.90;;;;;;5076207;28;20599;-85
2023/10/18 13:37:03;;;;;;;7.70;6.32;;;11.20;99.90;;;;;;5076487;28;20169;-86
2023/10/18 13:39:29;;;;;;;10.40;6.18;;;11.10;99.90;;;;;;5075798;28;20173;-83
2023/10/18 13:41:55;;;;;;;9.40;6.00;;;11.10;99.90;;;;;;5075955;28;20487;-87
2023/10/18 13:44:23;;;;;;;8.60;6.03;;;11.10;99.90;;;;;;5074923;28;20205;-84
2023/10/18 13:46:55;;;;;;;6.38;5.72;;;11.10;99.90;;;;;;5075548;28;20180;-85
2023/10/18 13:49:24;;;;;;;6.70;5.60;;;11.10;99.90;;;;;;5076932;28;20162;-87
2023/10/18 13:51:53;;;;;;;8.88;5.60;;;11.10;99.90;;;;;;5075779;28;20180;-86
2023/10/18 13:54:20;;;;;;;11.63;6.13;;;11.10;99.90;;;;;;5075865;28;20182;-87
2023/10/18 13:56:48;;;;;;;6.53;5.57;;;11.00;99.90;;;;;;5075191;28;20181;-85
2023/10/18 13:59:14;;;;;;;7.03;5.60;;;11.00;99.90;;;;;;5074864;28;20223;-83
2023/10/18 14:01:42;;;;;;;5.68;5.03;;;10.90;99.90;;;;;;5076458;28;20641;-86
2023/10/18 14:04:08;;;;;;;8.30;5.32;;;11.00;99.90;;;;;;5075700;28;20643;-87
2023/10/18 14:06:37;;;;;;;7.43;5.72;;;11.00;99.90;;;;;;5059594;28;20177;-87
2023/10/18 14:09:10;;;;;;;8.02;5.72;;;10.90;99.90;;;;;;5077274;28;20233;-86
2023/10/18 14:11:40;;;;;;;9.20;5.40;;;10.90;99.90;;;;;;5075325;28;20612;-87
2023/10/18 14:14:10;;;;;;;6.65;5.55;;;10.90;99.90;;;;;;5064800;28;20193;-87
2023/10/18 14:16:37;;;;;;;7.03;5.15;;;10.90;99.90;;;;;;5055526;28;20561;-88
2023/10/18 14:19:05;;;;;;;6.38;5.40;;;10.90;99.90;;;;;;5055627;28;20185;-87
2023/10/18 14:21:31;;;;;;;8.88;6.30;;;10.80;99.90;;;;;;5058351;28;20183;-86
2023/10/18 14:24:00;;;;;;;6.20;4.80;;;10.90;99.90;;;;;;5075547;28;20221;-87
2023/10/18 14:26:30;;;;;;;7.72;5.68;;;10.90;99.90;;;;;;5074553;28;20604;-88
2023/10/18 14:28:58;;;;;;;7.95;5.47;;;11.00;99.90;;;;;;5074941;28;20527;-87
2023/10/18 14:31:24;;;;;;;6.70;5.00;;;10.90;99.90;;;;;;5075077;28;20165;-88
2023/10/18 14:44:11;;;;;;;7.63;5.03;;;10.80;99.90;;;;;;5220825;23;20284;-94
2023/10/18 14:46:41;;;;;;;6.47;4.75;;;10.90;99.90;;;;;;5036472;28;20171;-95